sensor_id;sensor_type;location;lat;lon;timestamp;P1;durP1;ratioP1;P2;durP2;ratioP2
16705;SDS011;8469;60.136;15.180;2024-01-27T00:02:19;0.30;;;0.30;;
16705;SDS011;8469;60.136;15.180;2024-01-27T00:04:46;0.60;;;0.60;;
16705;SDS011;8469;60.136;15.180;2024-01-27T00:07:14;0.78;;;0.78;;
16705;SDS011;8469;60.136;15.180;2024-01-27T00:09:42;0.60;;;0.60;;
16705;SDS011;8469;60.136;15.180;2024-01-27T00:12:11;0.50;;;0.50;;
16705;SDS011;8469;60.136;15.180;2024-01-27T00:14:38;0.60;;;0.60;;
16705;SDS011;8469;60.136;15.180;2024-01-27T00:17:06;0.42;;;0.42;;
16705;SDS011;8469;60.136;15.180;2024-01-27T00:19:33;0.80;;;0.70;;
16705;SDS011;8469;60.136;15.180;2024-01-27T00:22:04;0.70;;;0.70;;
16705;SDS011;8469;60.136;15.180;2024-01-27T00:24:34;0.47;;;0.47;;
16705;SDS011;8469;60.136;15.180;2024-01-27T00:27:00;0.68;;;0.68;;
16705;SDS011;8469;60.136;15.180;2024-01-27T00:29:28;0.60;;;0.57;;
16705;SDS011;8469;60.136;15.180;2024-01-27T00:31:55;0.55;;;0.55;;
16705;SDS011;8469;60.136;15.180;2024-01-27T00:34:25;0.50;;;0.50;;
16705;SDS011;8469;60.136;15.180;2024-01-27T00:36:51;0.70;;;0.70;;
16705;SDS011;8469;60.136;15.180;2024-01-27T00:39:19;0.40;;;0.40;;
16705;SDS011;8469;60.136;15.180;2024-01-27T00:41:47;0.53;;;0.53;;
16705;SDS011;8469;60.136;15.180;2024-01-27T00:44:14;0.70;;;0.70;;
16705;SDS011;8469;60.136;15.180;2024-01-27T00:46:41;0.60;;;0.60;;
16705;SDS011;8469;60.136;15.180;2024-01-27T00:49:08;0.50;;;0.50;;
16705;SDS011;8469;60.136;15.180;2024-01-27T00:51:38;0.80;;;0.60;;
16705;SDS011;8469;60.136;15.180;2024-01-27T00:54:06;1.32;;;0.68;;
16705;SDS011;8469;60.136;15.180;2024-01-27T00:56:34;0.40;;;0.40;;
16705;SDS011;8469;60.136;15.180;2024-01-27T00:59:01;0.62;;;0.62;;
16705;SDS011;8469;60.136;15.180;2024-01-27T01:01:28;1.07;;;0.68;;
16705;SDS011;8469;60.136;15.180;2024-01-27T01:03:56;0.97;;;0.70;;
16705;SDS011;8469;60.136;15.180;2024-01-27T01:06:23;0.50;;;0.50;;
16705;SDS011;8469;60.136;15.180;2024-01-27T01:08:52;0.70;;;0.70;;
16705;SDS011;8469;60.136;15.180;2024-01-27T01:11:19;0.62;;;0.62;;
16705;SDS011;8469;60.136;15.180;2024-01-27T01:13:47;1.27;;;0.57;;
16705;SDS011;8469;60.136;15.180;2024-01-27T01:16:14;0.80;;;0.70;;
16705;SDS011;8469;60.136;15.180;2024-01-27T01:18:41;0.40;;;0.40;;
16705;SDS011;8469;60.136;15.180;2024-01-27T01:21:09;0.40;;;0.40;;
16705;SDS011;8469;60.136;15.180;2024-01-27T01:23:36;1.00;;;0.60;;
16705;SDS011;8469;60.136;15.180;2024-01-27T01:26:03;0.40;;;0.40;;
16705;SDS011;8469;60.136;15.180;2024-01-27T01:28:35;0.50;;;0.50;;
16705;SDS011;8469;60.136;15.180;2024-01-27T01:31:01;0.77;;;0.70;;
16705;SDS011;8469;60.136;15.180;2024-01-27T01:33:30;0.65;;;0.65;;
16705;SDS011;8469;60.136;15.180;2024-01-27T01:35:58;3.02;;;0.72;;
16705;SDS011;8469;60.136;15.180;2024-01-27T01:38:25;2.90;;;0.95;;
16705;SDS011;8469;60.136;15.180;2024-01-27T01:40:52;0.78;;;0.70;;
16705;SDS011;8469;60.136;15.180;2024-01-27T01:43:20;1.97;;;0.60;;
16705;SDS011;8469;60.136;15.180;2024-01-27T01:45:47;1.40;;;0.68;;
16705;SDS011;8469;60.136;15.180;2024-01-27T01:48:16;1.10;;;0.73;;
16705;SDS011;8469;60.136;15.180;2024-01-27T01:50:43;1.00;;;0.93;;
16705;SDS011;8469;60.136;15.180;2024-01-27T01:53:11;4.05;;;0.70;;
16705;SDS011;8469;60.136;15.180;2024-01-27T01:55:39;2.75;;;0.70;;
16705;SDS011;8469;60.136;15.180;2024-01-27T01:58:07;0.82;;;0.80;;
16705;SDS011;8469;60.136;15.180;2024-01-27T02:00:34;1.72;;;0.57;;
16705;SDS011;8469;60.136;15.180;2024-01-27T02:03:01;3.10;;;0.93;;
16705;SDS011;8469;60.136;15.180;2024-01-27T02:05:29;1.00;;;0.70;;
16705;SDS011;8469;60.136;15.180;2024-01-27T02:07:56;0.95;;;0.82;;
16705;SDS011;8469;60.136;15.180;2024-01-27T02:10:25;1.30;;;0.80;;
16705;SDS011;8469;60.136;15.180;2024-01-27T02:12:54;2.37;;;1.00;;
16705;SDS011;8469;60.136;15.180;2024-01-27T02:15:21;1.60;;;1.00;;
16705;SDS011;8469;60.136;15.180;2024-01-27T02:17:55;2.77;;;1.17;;
16705;SDS011;8469;60.136;15.180;2024-01-27T02:20:22;2.65;;;0.90;;
16705;SDS011;8469;60.136;15.180;2024-01-27T02:22:49;2.83;;;1.00;;
16705;SDS011;8469;60.136;15.180;2024-01-27T02:25:17;2.05;;;1.10;;
16705;SDS011;8469;60.136;15.180;2024-01-27T02:27:44;2.00;;;0.90;;
16705;SDS011;8469;60.136;15.180;2024-01-27T02:30:15;1.10;;;0.90;;
16705;SDS011;8469;60.136;15.180;2024-01-27T02:32:42;1.90;;;0.80;;
16705;SDS011;8469;60.136;15.180;2024-01-27T02:35:09;1.90;;;0.90;;
16705;SDS011;8469;60.136;15.180;2024-01-27T02:37:37;1.02;;;0.72;;
16705;SDS011;8469;60.136;15.180;2024-01-27T02:40:04;0.70;;;0.70;;
16705;SDS011;8469;60.136;15.180;2024-01-27T02:42:32;2.08;;;0.95;;
16705;SDS011;8469;60.136;15.180;2024-01-27T02:45:04;5.80;;;1.17;;
16705;SDS011;8469;60.136;15.180;2024-01-27T02:47:28;4.75;;;1.10;;
16705;SDS011;8469;60.136;15.180;2024-01-27T02:49:55;5.20;;;1.60;;
16705;SDS011;8469;60.136;15.180;2024-01-27T02:52:23;4.97;;;1.03;;
16705;SDS011;8469;60.136;15.180;2024-01-27T02:54:53;4.80;;;1.20;;
16705;SDS011;8469;60.136;15.180;2024-01-27T02:57:20;3.87;;;1.30;;
16705;SDS011;8469;60.136;15.180;2024-01-27T02:59:48;5.40;;;1.10;;
16705;SDS011;8469;60.136;15.180;2024-01-27T03:02:15;3.47;;;1.23;;
16705;SDS011;8469;60.136;15.180;2024-01-27T03:04:43;5.30;;;1.30;;
16705;SDS011;8469;60.136;15.180;2024-01-27T03:07:10;2.45;;;1.12;;
16705;SDS011;8469;60.136;15.180;2024-01-27T03:09:37;6.75;;;1.15;;
16705;SDS011;8469;60.136;15.180;2024-01-27T03:12:05;2.22;;;1.10;;
16705;SDS011;8469;60.136;15.180;2024-01-27T03:14:32;3.85;;;0.95;;
16705;SDS011;8469;60.136;15.180;2024-01-27T03:17:00;6.27;;;1.30;;
16705;SDS011;8469;60.136;15.180;2024-01-27T03:19:27;4.15;;;1.10;;
16705;SDS011;8469;60.136;15.180;2024-01-27T03:21:54;2.80;;;0.90;;
16705;SDS011;8469;60.136;15.180;2024-01-27T03:24:22;5.37;;;1.15;;
16705;SDS011;8469;60.136;15.180;2024-01-27T03:26:49;4.17;;;0.98;;
16705;SDS011;8469;60.136;15.180;2024-01-27T03:29:16;4.35;;;1.07;;
16705;SDS011;8469;60.136;15.180;2024-01-27T03:31:44;3.75;;;1.10;;
16705;SDS011;8469;60.136;15.180;2024-01-27T03:34:11;4.67;;;1.27;;
16705;SDS011;8469;60.136;15.180;2024-01-27T03:36:38;8.43;;;1.30;;
16705;SDS011;8469;60.136;15.180;2024-01-27T03:39:06;2.22;;;1.15;;
16705;SDS011;8469;60.136;15.180;2024-01-27T03:41:35;4.78;;;1.67;;
16705;SDS011;8469;60.136;15.180;2024-01-27T03:44:03;8.45;;;1.37;;
16705;SDS011;8469;60.136;15.180;2024-01-27T03:46:30;3.40;;;1.40;;
16705;SDS011;8469;60.136;15.180;2024-01-27T03:48:57;3.05;;;1.05;;
16705;SDS011;8469;60.136;15.180;2024-01-27T03:51:24;7.75;;;1.22;;
16705;SDS011;8469;60.136;15.180;2024-01-27T03:53:52;5.58;;;1.32;;
16705;SDS011;8469;60.136;15.180;2024-01-27T03:56:20;15.55;;;1.85;;
16705;SDS011;8469;60.136;15.180;2024-01-27T03:58:47;6.70;;;1.35;;
16705;SDS011;8469;60.136;15.180;2024-01-27T04:01:15;7.35;;;1.17;;
16705;SDS011;8469;60.136;15.180;2024-01-27T04:03:42;7.42;;;1.20;;
16705;SDS011;8469;60.136;15.180;2024-01-27T04:06:09;3.30;;;1.37;;
16705;SDS011;8469;60.136;15.180;2024-01-27T04:08:37;10.35;;;1.60;;
16705;SDS011;8469;60.136;15.180;2024-01-27T04:11:04;5.17;;;1.35;;
16705;SDS011;8469;60.136;15.180;2024-01-27T04:13:31;7.87;;;1.20;;
16705;SDS011;8469;60.136;15.180;2024-01-27T04:15:59;8.65;;;1.42;;
16705;SDS011;8469;60.136;15.180;2024-01-27T04:18:27;6.25;;;1.40;;
16705;SDS011;8469;60.136;15.180;2024-01-27T04:20:54;4.58;;;1.10;;
16705;SDS011;8469;60.136;15.180;2024-01-27T04:23:22;8.55;;;1.87;;
16705;SDS011;8469;60.136;15.180;2024-01-27T04:25:49;4.00;;;1.25;;
16705;SDS011;8469;60.136;15.180;2024-01-27T04:28:17;2.98;;;1.10;;
16705;SDS011;8469;60.136;15.180;2024-01-27T04:30:44;4.83;;;1.22;;
16705;SDS011;8469;60.136;15.180;2024-01-27T04:33:12;6.60;;;1.25;;
16705;SDS011;8469;60.136;15.180;2024-01-27T04:35:39;8.03;;;1.22;;
16705;SDS011;8469;60.136;15.180;2024-01-27T04:38:09;2.60;;;1.17;;
16705;SDS011;8469;60.136;15.180;2024-01-27T04:40:37;7.17;;;1.42;;
16705;SDS011;8469;60.136;15.180;2024-01-27T04:43:09;2.83;;;1.17;;
16705;SDS011;8469;60.136;15.180;2024-01-27T04:45:33;4.97;;;1.00;;
16705;SDS011;8469;60.136;15.180;2024-01-27T04:48:01;7.30;;;1.30;;
16705;SDS011;8469;60.136;15.180;2024-01-27T04:50:28;3.55;;;1.15;;
16705;SDS011;8469;60.136;15.180;2024-01-27T04:52:55;6.03;;;1.22;;
16705;SDS011;8469;60.136;15.180;2024-01-27T04:55:27;5.80;;;1.03;;
16705;SDS011;8469;60.136;15.180;2024-01-27T04:57:56;8.03;;;1.35;;
16705;SDS011;8469;60.136;15.180;2024-01-27T05:00:20;7.20;;;1.40;;
16705;SDS011;8469;60.136;15.180;2024-01-27T05:02:48;7.28;;;1.15;;
16705;SDS011;8469;60.136;15.180;2024-01-27T05:05:17;6.97;;;1.32;;
16705;SDS011;8469;60.136;15.180;2024-01-27T05:07:44;7.03;;;1.20;;
16705;SDS011;8469;60.136;15.180;2024-01-27T05:10:14;6.10;;;1.15;;
16705;SDS011;8469;60.136;15.180;2024-01-27T05:12:41;4.53;;;0.95;;
16705;SDS011;8469;60.136;15.180;2024-01-27T05:15:10;6.15;;;1.20;;
16705;SDS011;8469;60.136;15.180;2024-01-27T05:17:37;4.87;;;1.30;;
16705;SDS011;8469;60.136;15.180;2024-01-27T05:20:05;3.60;;;1.10;;
16705;SDS011;8469;60.136;15.180;2024-01-27T05:22:36;6.20;;;1.30;;
16705;SDS011;8469;60.136;15.180;2024-01-27T05:25:02;4.53;;;1.20;;
16705;SDS011;8469;60.136;15.180;2024-01-27T05:27:30;8.13;;;1.30;;
16705;SDS011;8469;60.136;15.180;2024-01-27T05:30:02;3.27;;;1.55;;
16705;SDS011;8469;60.136;15.180;2024-01-27T05:32:30;5.80;;;1.45;;
16705;SDS011;8469;60.136;15.180;2024-01-27T05:34:58;7.10;;;1.50;;
16705;SDS011;8469;60.136;15.180;2024-01-27T05:37:25;9.90;;;1.42;;
16705;SDS011;8469;60.136;15.180;2024-01-27T05:39:52;5.67;;;1.32;;
16705;SDS011;8469;60.136;15.180;2024-01-27T05:42:24;7.37;;;1.30;;
16705;SDS011;8469;60.136;15.180;2024-01-27T05:44:50;2.95;;;1.30;;
16705;SDS011;8469;60.136;15.180;2024-01-27T05:47:18;6.47;;;1.40;;
16705;SDS011;8469;60.136;15.180;2024-01-27T05:49:45;5.28;;;1.30;;
16705;SDS011;8469;60.136;15.180;2024-01-27T05:52:12;4.65;;;1.15;;
16705;SDS011;8469;60.136;15.180;2024-01-27T05:54:40;8.30;;;1.32;;
16705;SDS011;8469;60.136;15.180;2024-01-27T05:57:08;5.28;;;1.20;;
16705;SDS011;8469;60.136;15.180;2024-01-27T05:59:35;8.05;;;2.00;;
16705;SDS011;8469;60.136;15.180;2024-01-27T06:02:03;8.07;;;2.20;;
16705;SDS011;8469;60.136;15.180;2024-01-27T06:04:32;8.08;;;1.70;;
16705;SDS011;8469;60.136;15.180;2024-01-27T06:07:02;7.05;;;1.40;;
16705;SDS011;8469;60.136;15.180;2024-01-27T06:09:32;6.35;;;1.55;;
16705;SDS011;8469;60.136;15.180;2024-01-27T06:12:00;6.72;;;1.45;;
16705;SDS011;8469;60.136;15.180;2024-01-27T06:14:27;2.95;;;1.25;;
16705;SDS011;8469;60.136;15.180;2024-01-27T06:16:54;11.25;;;2.70;;
16705;SDS011;8469;60.136;15.180;2024-01-27T06:19:22;2.95;;;1.22;;
16705;SDS011;8469;60.136;15.180;2024-01-27T06:21:49;6.53;;;2.22;;
16705;SDS011;8469;60.136;15.180;2024-01-27T06:24:16;9.30;;;2.67;;
16705;SDS011;8469;60.136;15.180;2024-01-27T06:26:44;9.85;;;2.22;;
16705;SDS011;8469;60.136;15.180;2024-01-27T06:29:11;8.10;;;1.82;;
16705;SDS011;8469;60.136;15.180;2024-01-27T06:31:40;7.45;;;1.67;;
16705;SDS011;8469;60.136;15.180;2024-01-27T06:34:07;3.27;;;1.35;;
16705;SDS011;8469;60.136;15.180;2024-01-27T06:36:34;9.75;;;2.33;;
16705;SDS011;8469;60.136;15.180;2024-01-27T06:39:03;12.15;;;1.95;;
16705;SDS011;8469;60.136;15.180;2024-01-27T06:41:31;11.35;;;2.15;;
16705;SDS011;8469;60.136;15.180;2024-01-27T06:43:58;9.43;;;2.22;;
16705;SDS011;8469;60.136;15.180;2024-01-27T06:46:26;3.90;;;1.92;;
16705;SDS011;8469;60.136;15.180;2024-01-27T06:48:53;7.55;;;1.82;;
16705;SDS011;8469;60.136;15.180;2024-01-27T06:51:20;6.33;;;1.90;;
16705;SDS011;8469;60.136;15.180;2024-01-27T06:53:48;5.83;;;1.82;;
16705;SDS011;8469;60.136;15.180;2024-01-27T06:56:18;10.43;;;2.17;;
16705;SDS011;8469;60.136;15.180;2024-01-27T06:58:43;8.45;;;1.77;;
16705;SDS011;8469;60.136;15.180;2024-01-27T07:01:11;7.03;;;1.80;;
16705;SDS011;8469;60.136;15.180;2024-01-27T07:03:39;7.63;;;1.70;;
16705;SDS011;8469;60.136;15.180;2024-01-27T07:06:07;16.95;;;5.15;;
16705;SDS011;8469;60.136;15.180;2024-01-27T07:08:34;15.08;;;3.92;;
16705;SDS011;8469;60.136;15.180;2024-01-27T07:11:03;41.18;;;14.33;;
16705;SDS011;8469;60.136;15.180;2024-01-27T07:13:30;14.78;;;4.58;;
16705;SDS011;8469;60.136;15.180;2024-01-27T07:15:58;6.75;;;2.02;;
16705;SDS011;8469;60.136;15.180;2024-01-27T07:18:25;7.12;;;1.82;;
16705;SDS011;8469;60.136;15.180;2024-01-27T07:20:54;8.05;;;2.85;;
16705;SDS011;8469;60.136;15.180;2024-01-27T07:23:21;11.27;;;3.40;;
16705;SDS011;8469;60.136;15.180;2024-01-27T07:25:48;8.45;;;1.80;;
16705;SDS011;8469;60.136;15.180;2024-01-27T07:28:16;8.83;;;1.90;;
16705;SDS011;8469;60.136;15.180;2024-01-27T07:30:44;7.35;;;2.65;;
16705;SDS011;8469;60.136;15.180;2024-01-27T07:33:12;6.33;;;1.80;;
16705;SDS011;8469;60.136;15.180;2024-01-27T07:35:42;8.85;;;2.08;;
16705;SDS011;8469;60.136;15.180;2024-01-27T07:38:08;10.53;;;3.13;;
16705;SDS011;8469;60.136;15.180;2024-01-27T07:40:35;13.05;;;3.65;;
16705;SDS011;8469;60.136;15.180;2024-01-27T07:43:03;10.93;;;3.50;;
16705;SDS011;8469;60.136;15.180;2024-01-27T07:45:31;9.13;;;3.22;;
16705;SDS011;8469;60.136;15.180;2024-01-27T07:47:58;10.95;;;3.40;;
16705;SDS011;8469;60.136;15.180;2024-01-27T07:50:25;12.23;;;4.00;;
16705;SDS011;8469;60.136;15.180;2024-01-27T07:52:53;18.07;;;4.43;;
16705;SDS011;8469;60.136;15.180;2024-01-27T07:55:25;9.43;;;3.33;;
16705;SDS011;8469;60.136;15.180;2024-01-27T07:57:50;8.63;;;2.87;;
16705;SDS011;8469;60.136;15.180;2024-01-27T08:00:21;9.98;;;3.35;;
16705;SDS011;8469;60.136;15.180;2024-01-27T08:02:49;13.25;;;3.12;;
16705;SDS011;8469;60.136;15.180;2024-01-27T08:05:16;11.55;;;2.67;;
16705;SDS011;8469;60.136;15.180;2024-01-27T08:07:43;10.18;;;3.02;;
16705;SDS011;8469;60.136;15.180;2024-01-27T08:10:11;11.38;;;3.25;;
16705;SDS011;8469;60.136;15.180;2024-01-27T08:12:38;7.85;;;2.95;;
16705;SDS011;8469;60.136;15.180;2024-01-27T08:15:06;12.75;;;3.17;;
16705;SDS011;8469;60.136;15.180;2024-01-27T08:17:33;7.85;;;2.80;;
16705;SDS011;8469;60.136;15.180;2024-01-27T08:20:00;9.43;;;2.60;;
16705;SDS011;8469;60.136;15.180;2024-01-27T08:22:28;8.40;;;3.35;;
16705;SDS011;8469;60.136;15.180;2024-01-27T08:24:55;9.78;;;3.25;;
16705;SDS011;8469;60.136;15.180;2024-01-27T08:27:25;13.35;;;4.40;;
16705;SDS011;8469;60.136;15.180;2024-01-27T08:29:55;11.60;;;4.87;;
16705;SDS011;8469;60.136;15.180;2024-01-27T08:32:24;13.28;;;5.37;;
16705;SDS011;8469;60.136;15.180;2024-01-27T08:34:50;21.82;;;7.08;;
16705;SDS011;8469;60.136;15.180;2024-01-27T08:37:18;13.70;;;6.72;;
16705;SDS011;8469;60.136;15.180;2024-01-27T08:39:46;17.95;;;7.97;;
16705;SDS011;8469;60.136;15.180;2024-01-27T08:42:13;14.90;;;5.45;;
16705;SDS011;8469;60.136;15.180;2024-01-27T08:44:42;15.03;;;4.40;;
16705;SDS011;8469;60.136;15.180;2024-01-27T08:47:10;9.63;;;3.67;;
16705;SDS011;8469;60.136;15.180;2024-01-27T08:49:37;5.83;;;2.27;;
16705;SDS011;8469;60.136;15.180;2024-01-27T08:52:04;4.03;;;2.00;;
16705;SDS011;8469;60.136;15.180;2024-01-27T08:54:33;2.47;;;1.20;;
16705;SDS011;8469;60.136;15.180;2024-01-27T08:57:01;3.95;;;1.20;;
16705;SDS011;8469;60.136;15.180;2024-01-27T08:59:28;5.62;;;1.17;;
16705;SDS011;8469;60.136;15.180;2024-01-27T09:01:56;6.90;;;2.15;;
16705;SDS011;8469;60.136;15.180;2024-01-27T09:04:23;7.05;;;3.20;;
16705;SDS011;8469;60.136;15.180;2024-01-27T09:06:52;4.40;;;2.27;;
16705;SDS011;8469;60.136;15.180;2024-01-27T09:09:19;4.62;;;2.20;;
16705;SDS011;8469;60.136;15.180;2024-01-27T09:11:47;7.40;;;3.37;;
16705;SDS011;8469;60.136;15.180;2024-01-27T09:14:15;7.40;;;3.55;;
16705;SDS011;8469;60.136;15.180;2024-01-27T09:16:42;10.98;;;3.62;;
16705;SDS011;8469;60.136;15.180;2024-01-27T09:19:11;8.38;;;3.37;;
16705;SDS011;8469;60.136;15.180;2024-01-27T09:21:43;5.72;;;2.72;;
16705;SDS011;8469;60.136;15.180;2024-01-27T09:24:07;6.60;;;3.10;;
16705;SDS011;8469;60.136;15.180;2024-01-27T09:26:38;13.43;;;3.35;;
16705;SDS011;8469;60.136;15.180;2024-01-27T09:29:05;13.30;;;4.10;;
16705;SDS011;8469;60.136;15.180;2024-01-27T09:31:35;9.30;;;2.95;;
16705;SDS011;8469;60.136;15.180;2024-01-27T09:34:03;9.25;;;3.92;;
16705;SDS011;8469;60.136;15.180;2024-01-27T09:36:32;14.65;;;4.10;;
16705;SDS011;8469;60.136;15.180;2024-01-27T09:38:59;15.13;;;3.40;;
16705;SDS011;8469;60.136;15.180;2024-01-27T09:41:27;10.60;;;2.87;;
16705;SDS011;8469;60.136;15.180;2024-01-27T09:43:55;10.28;;;3.22;;
16705;SDS011;8469;60.136;15.180;2024-01-27T09:46:24;7.92;;;2.75;;
16705;SDS011;8469;60.136;15.180;2024-01-27T09:48:52;5.92;;;2.50;;
16705;SDS011;8469;60.136;15.180;2024-01-27T09:51:20;8.33;;;2.75;;
16705;SDS011;8469;60.136;15.180;2024-01-27T09:53:47;4.45;;;1.87;;
16705;SDS011;8469;60.136;15.180;2024-01-27T09:56:16;7.45;;;3.08;;
16705;SDS011;8469;60.136;15.180;2024-01-27T09:58:50;7.17;;;2.83;;
16705;SDS011;8469;60.136;15.180;2024-01-27T10:01:19;8.23;;;2.85;;
16705;SDS011;8469;60.136;15.180;2024-01-27T10:03:47;13.22;;;3.50;;
16705;SDS011;8469;60.136;15.180;2024-01-27T10:06:14;10.32;;;3.80;;
16705;SDS011;8469;60.136;15.180;2024-01-27T10:08:43;15.40;;;3.70;;
16705;SDS011;8469;60.136;15.180;2024-01-27T10:11:10;6.58;;;3.00;;
16705;SDS011;8469;60.136;15.180;2024-01-27T10:13:44;8.70;;;2.50;;
16705;SDS011;8469;60.136;15.180;2024-01-27T10:16:08;4.12;;;2.30;;
16705;SDS011;8469;60.136;15.180;2024-01-27T10:18:37;3.17;;;1.82;;
16705;SDS011;8469;60.136;15.180;2024-01-27T10:21:14;11.60;;;3.27;;
16705;SDS011;8469;60.136;15.180;2024-01-27T10:23:42;6.40;;;2.95;;
16705;SDS011;8469;60.136;15.180;2024-01-27T10:26:14;9.53;;;3.45;;
16705;SDS011;8469;60.136;15.180;2024-01-27T10:28:39;5.85;;;2.30;;
16705;SDS011;8469;60.136;15.180;2024-01-27T10:31:11;7.97;;;2.92;;
16705;SDS011;8469;60.136;15.180;2024-01-27T10:33:37;3.58;;;1.82;;
16705;SDS011;8469;60.136;15.180;2024-01-27T10:36:05;4.58;;;1.82;;
16705;SDS011;8469;60.136;15.180;2024-01-27T10:38:35;6.15;;;2.05;;
16705;SDS011;8469;60.136;15.180;2024-01-27T10:41:09;3.10;;;1.85;;
16705;SDS011;8469;60.136;15.180;2024-01-27T10:43:36;6.07;;;1.90;;
16705;SDS011;8469;60.136;15.180;2024-01-27T10:46:07;3.67;;;1.92;;
16705;SDS011;8469;60.136;15.180;2024-01-27T10:48:35;3.55;;;1.60;;
16705;SDS011;8469;60.136;15.180;2024-01-27T10:51:07;2.22;;;1.22;;
16705;SDS011;8469;60.136;15.180;2024-01-27T10:53:33;1.75;;;1.20;;
16705;SDS011;8469;60.136;15.180;2024-01-27T10:56:07;3.58;;;1.50;;
16705;SDS011;8469;60.136;15.180;2024-01-27T10:58:32;2.52;;;1.77;;
16705;SDS011;8469;60.136;15.180;2024-01-27T11:01:01;3.70;;;1.42;;
16705;SDS011;8469;60.136;15.180;2024-01-27T11:03:30;3.08;;;1.50;;
16705;SDS011;8469;60.136;15.180;2024-01-27T11:05:58;3.42;;;1.07;;
16705;SDS011;8469;60.136;15.180;2024-01-27T11:08:25;2.10;;;1.02;;
16705;SDS011;8469;60.136;15.180;2024-01-27T11:10:54;1.92;;;1.00;;
16705;SDS011;8469;60.136;15.180;2024-01-27T11:13:21;1.53;;;0.93;;
16705;SDS011;8469;60.136;15.180;2024-01-27T11:15:55;1.25;;;1.10;;
16705;SDS011;8469;60.136;15.180;2024-01-27T11:18:19;3.00;;;1.25;;
16705;SDS011;8469;60.136;15.180;2024-01-27T11:20:47;3.65;;;1.15;;
16705;SDS011;8469;60.136;15.180;2024-01-27T11:23:14;3.02;;;1.20;;
16705;SDS011;8469;60.136;15.180;2024-01-27T11:25:42;2.50;;;1.00;;
16705;SDS011;8469;60.136;15.180;2024-01-27T11:28:12;9.18;;;4.20;;
16705;SDS011;8469;60.136;15.180;2024-01-27T11:30:46;6.87;;;1.62;;
16705;SDS011;8469;60.136;15.180;2024-01-27T11:33:13;3.22;;;1.00;;
16705;SDS011;8469;60.136;15.180;2024-01-27T11:35:40;2.30;;;1.22;;
16705;SDS011;8469;60.136;15.180;2024-01-27T11:38:08;2.95;;;1.10;;
16705;SDS011;8469;60.136;15.180;2024-01-27T11:40:49;3.42;;;1.00;;
16705;SDS011;8469;60.136;15.180;2024-01-27T11:43:14;2.47;;;1.10;;
16705;SDS011;8469;60.136;15.180;2024-01-27T11:45:41;2.00;;;0.95;;
16705;SDS011;8469;60.136;15.180;2024-01-27T11:48:08;4.80;;;1.22;;
16705;SDS011;8469;60.136;15.180;2024-01-27T11:50:38;2.00;;;0.93;;
16705;SDS011;8469;60.136;15.180;2024-01-27T11:53:04;2.27;;;0.93;;
16705;SDS011;8469;60.136;15.180;2024-01-27T11:55:34;3.33;;;1.07;;
16705;SDS011;8469;60.136;15.180;2024-01-27T11:58:02;1.90;;;0.80;;
16705;SDS011;8469;60.136;15.180;2024-01-27T12:00:29;2.52;;;1.12;;
16705;SDS011;8469;60.136;15.180;2024-01-27T12:02:57;5.28;;;1.55;;
16705;SDS011;8469;60.136;15.180;2024-01-27T12:05:24;2.42;;;1.07;;
16705;SDS011;8469;60.136;15.180;2024-01-27T12:07:51;2.67;;;0.90;;
16705;SDS011;8469;60.136;15.180;2024-01-27T12:10:19;3.87;;;1.15;;
16705;SDS011;8469;60.136;15.180;2024-01-27T12:12:46;2.60;;;0.95;;
16705;SDS011;8469;60.136;15.180;2024-01-27T12:15:13;5.00;;;1.00;;
16705;SDS011;8469;60.136;15.180;2024-01-27T12:17:41;3.08;;;1.10;;
16705;SDS011;8469;60.136;15.180;2024-01-27T12:20:14;1.98;;;1.17;;
16705;SDS011;8469;60.136;15.180;2024-01-27T12:22:37;5.37;;;0.93;;
16705;SDS011;8469;60.136;15.180;2024-01-27T12:25:08;3.10;;;1.00;;
16705;SDS011;8469;60.136;15.180;2024-01-27T12:27:41;6.85;;;1.00;;
16705;SDS011;8469;60.136;15.180;2024-01-27T12:30:05;4.28;;;1.27;;
16705;SDS011;8469;60.136;15.180;2024-01-27T12:32:32;4.92;;;1.10;;
16705;SDS011;8469;60.136;15.180;2024-01-27T12:35:06;5.72;;;1.00;;
16705;SDS011;8469;60.136;15.180;2024-01-27T12:37:39;3.80;;;1.02;;
16705;SDS011;8469;60.136;15.180;2024-01-27T12:40:18;3.80;;;1.22;;
16705;SDS011;8469;60.136;15.180;2024-01-27T12:42:46;2.62;;;0.93;;
16705;SDS011;8469;60.136;15.180;2024-01-27T12:45:17;2.43;;;0.87;;
16705;SDS011;8469;60.136;15.180;2024-01-27T12:47:44;2.37;;;0.82;;
16705;SDS011;8469;60.136;15.180;2024-01-27T12:50:12;3.50;;;0.93;;
16705;SDS011;8469;60.136;15.180;2024-01-27T12:52:39;6.03;;;1.00;;
16705;SDS011;8469;60.136;15.180;2024-01-27T12:55:06;3.50;;;1.00;;
16705;SDS011;8469;60.136;15.180;2024-01-27T12:57:36;3.77;;;0.90;;
16705;SDS011;8469;60.136;15.180;2024-01-27T13:00:06;3.85;;;1.15;;
16705;SDS011;8469;60.136;15.180;2024-01-27T13:02:41;3.47;;;1.40;;
16705;SDS011;8469;60.136;15.180;2024-01-27T13:05:05;2.47;;;1.10;;
16705;SDS011;8469;60.136;15.180;2024-01-27T13:07:32;3.85;;;1.30;;
16705;SDS011;8469;60.136;15.180;2024-01-27T13:10:00;5.08;;;1.40;;
16705;SDS011;8469;60.136;15.180;2024-01-27T13:12:29;4.83;;;1.10;;
16705;SDS011;8469;60.136;15.180;2024-01-27T13:14:57;2.95;;;0.95;;
16705;SDS011;8469;60.136;15.180;2024-01-27T13:17:25;4.40;;;1.00;;
16705;SDS011;8469;60.136;15.180;2024-01-27T13:19:52;5.72;;;0.95;;
16705;SDS011;8469;60.136;15.180;2024-01-27T13:22:20;5.87;;;1.27;;
16705;SDS011;8469;60.136;15.180;2024-01-27T13:24:49;1.98;;;1.00;;
16705;SDS011;8469;60.136;15.180;2024-01-27T13:27:16;4.85;;;1.40;;
16705;SDS011;8469;60.136;15.180;2024-01-27T13:29:48;4.33;;;0.90;;
16705;SDS011;8469;60.136;15.180;2024-01-27T13:32:13;4.33;;;1.10;;
16705;SDS011;8469;60.136;15.180;2024-01-27T13:34:40;5.70;;;1.30;;
16705;SDS011;8469;60.136;15.180;2024-01-27T13:37:07;5.40;;;0.90;;
16705;SDS011;8469;60.136;15.180;2024-01-27T13:39:35;6.25;;;1.60;;
16705;SDS011;8469;60.136;15.180;2024-01-27T13:42:03;15.60;;;5.03;;
16705;SDS011;8469;60.136;15.180;2024-01-27T13:44:31;25.90;;;12.43;;
16705;SDS011;8469;60.136;15.180;2024-01-27T13:47:00;21.48;;;7.47;;
16705;SDS011;8469;60.136;15.180;2024-01-27T13:49:27;21.70;;;6.90;;
16705;SDS011;8469;60.136;15.180;2024-01-27T13:51:54;6.25;;;1.75;;
16705;SDS011;8469;60.136;15.180;2024-01-27T13:54:27;57.98;;;11.15;;
16705;SDS011;8469;60.136;15.180;2024-01-27T13:56:51;9.03;;;1.52;;
16705;SDS011;8469;60.136;15.180;2024-01-27T13:59:18;17.87;;;4.37;;
16705;SDS011;8469;60.136;15.180;2024-01-27T14:01:46;3.57;;;1.10;;
16705;SDS011;8469;60.136;15.180;2024-01-27T14:04:13;6.12;;;1.50;;
16705;SDS011;8469;60.136;15.180;2024-01-27T14:06:40;13.08;;;2.50;;
16705;SDS011;8469;60.136;15.180;2024-01-27T14:09:08;3.67;;;1.52;;
16705;SDS011;8469;60.136;15.180;2024-01-27T14:11:38;9.73;;;1.32;;
16705;SDS011;8469;60.136;15.180;2024-01-27T14:14:06;9.08;;;2.10;;
16705;SDS011;8469;60.136;15.180;2024-01-27T14:16:33;7.22;;;1.45;;
16705;SDS011;8469;60.136;15.180;2024-01-27T14:19:01;4.60;;;1.50;;
16705;SDS011;8469;60.136;15.180;2024-01-27T14:21:28;6.30;;;2.10;;
16705;SDS011;8469;60.136;15.180;2024-01-27T14:23:55;6.90;;;1.60;;
16705;SDS011;8469;60.136;15.180;2024-01-27T14:26:24;5.55;;;1.62;;
16705;SDS011;8469;60.136;15.180;2024-01-27T14:28:52;7.37;;;1.30;;
16705;SDS011;8469;60.136;15.180;2024-01-27T14:31:19;5.45;;;1.10;;
16705;SDS011;8469;60.136;15.180;2024-01-27T14:33:48;7.33;;;1.30;;
16705;SDS011;8469;60.136;15.180;2024-01-27T14:36:21;7.92;;;1.55;;
16705;SDS011;8469;60.136;15.180;2024-01-27T14:38:45;4.22;;;1.50;;
16705;SDS011;8469;60.136;15.180;2024-01-27T14:41:12;6.50;;;1.43;;
16705;SDS011;8469;60.136;15.180;2024-01-27T14:43:39;5.22;;;1.47;;
16705;SDS011;8469;60.136;15.180;2024-01-27T14:46:07;9.30;;;1.77;;
16705;SDS011;8469;60.136;15.180;2024-01-27T14:48:34;6.13;;;2.10;;
16705;SDS011;8469;60.136;15.180;2024-01-27T14:51:02;9.23;;;1.92;;